Time;durP1;ratioP1;P1;durP2;ratioP2;P2;SDS_P1;SDS_P2;PMS_P1;PMS_P2;Temp;Humidity;BMP_temperature;BMP_pressure;BME280_temperature;BME280_humidity;BME280_pressure;Samples;Min_cycle;Max_cycle;Signal;HPM_P1;HPM_P2
2021/09/14 00:00:33;;;;;;;;;;;;;;;23.61;48.08;100840.47;5052843;28;1847;-46
2021/09/14 00:03:06;;;;;;;;;;;;;;;23.60;47.93;100847.72;5052557;28;1541;-46
2021/09/14 00:05:35;;;;;;;;;;;;;;;23.60;47.95;100844.19;5058831;28;1551;-46
2021/09/14 00:08:04;;;;;;;;;;;;;;;23.68;48.09;100860.41;5060422;28;1954;-45
2021/09/14 00:10:32;;;;;;;;;;;;;;;23.63;47.99;100843.84;5053165;28;1882;-46
2021/09/14 00:12:59;;;;;;;;;;;;;;;23.63;48.00;100852.81;5049141;28;1882;-46
2021/09/14 00:15:28;;;;;;;;;;;;;;;23.62;48.14;100839.47;5052438;28;1977;-45
2021/09/14 00:17:54;;;;;;;;;;;;;;;23.62;48.05;100848.41;5052062;28;1919;-46
2021/09/14 00:20:27;;;;;;;;;;;;;;;23.67;48.27;100864.09;5050437;28;1560;-46
2021/09/14 00:22:56;;;;;;;;;;;;;;;23.61;48.07;100843.16;5048468;28;1753;-45
2021/09/14 00:25:25;;;;;;;;;;;;;;;23.60;47.91;100857.69;5052840;28;1844;-46
2021/09/14 00:27:52;;;;;;;;;;;;;;;23.55;48.81;100851.91;5050159;28;1603;-45
2021/09/14 00:30:21;;;;;;;;;;;;;;;23.58;48.34;100840.81;5051081;28;1997;-45
2021/09/14 00:32:48;;;;;;;;;;;;;;;23.58;49.28;100857.84;5047749;28;1662;-45
2021/09/14 00:35:17;;;;;;;;;;;;;;;23.62;49.05;100855.66;5052730;28;1936;-46
2021/09/14 00:37:47;;;;;;;;;;;;;;;23.60;48.79;100868.47;5056156;28;1996;-45
2021/09/14 00:40:15;;;;;;;;;;;;;;;23.60;48.73;100857.69;5052772;28;1593;-46
2021/09/14 00:42:45;;;;;;;;;;;;;;;23.63;48.32;100855.50;5047324;28;1545;-46
2021/09/14 00:45:12;;;;;;;;;;;;;;;23.65;48.06;100847.22;5048010;28;1452;-46
2021/09/14 00:47:40;;;;;;;;;;;;;;;23.68;48.01;100867.66;5053534;28;1977;-46
2021/09/14 00:50:10;;;;;;;;;;;;;;;23.62;47.93;100853.81;5053810;28;1848;-46
2021/09/14 00:52:37;;;;;;;;;;;;;;;23.63;47.89;100870.84;5054979;28;1782;-46
2021/09/14 00:55:07;;;;;;;;;;;;;;;23.59;47.62;100858.69;5057120;28;1915;-45
2021/09/14 00:57:36;;;;;;;;;;;;;;;23.61;48.08;100862.91;5055621;28;1891;-46
2021/09/14 01:00:06;;;;;;;;;;;;;;;23.57;47.66;100864.22;5055161;28;1342;-46
2021/09/14 01:02:34;;;;;;;;;;;;;;;23.56;47.67;100848.22;5055854;28;1330;-45
2021/09/14 01:05:00;;;;;;;;;;;;;;;23.59;47.71;100869.47;5055652;28;1900;-45
2021/09/14 01:07:27;;;;;;;;;;;;;;;23.56;47.98;100859.03;5056325;28;1785;-45
2021/09/14 01:09:55;;;;;;;;;;;;;;;23.61;47.68;100871.00;5056245;28;1080;-45
2021/09/14 01:12:39;;;;;;;;;;;;;;;23.60;47.55;100876.59;5056343;28;1856;-45
2021/09/14 01:15:07;;;;;;;;;;;;;;;23.60;47.84;100874.72;5054982;28;1980;-45
2021/09/14 01:17:34;;;;;;;;;;;;;;;23.58;47.79;100874.03;5053159;28;1900;-45
2021/09/14 01:20:03;;;;;;;;;;;;;;;23.59;47.69;100870.31;5049627;28;1660;-46
2021/09/14 01:22:32;;;;;;;;;;;;;;;23.56;47.51;100877.91;5054900;28;1567;-45
2021/09/14 01:24:59;;;;;;;;;;;;;;;23.57;47.66;100877.72;5056414;28;1801;-46
2021/09/14 01:27:27;;;;;;;;;;;;;;;23.55;47.65;100887.84;5054906;28;1802;-46
2021/09/14 01:32:58;;;;;;;;;;;;;;;23.49;47.58;100876.88;5055553;28;1722;-45
2021/09/14 01:35:29;;;;;;;;;;;;;;;23.50;47.51;100892.06;5054627;28;1987;-46
2021/09/14 01:38:00;;;;;;;;;;;;;;;23.49;47.61;100885.81;5054748;28;1612;-46
2021/09/14 01:40:27;;;;;;;;;;;;;;;23.55;47.57;100879.75;5055401;28;1115;-46
2021/09/14 01:42:54;;;;;;;;;;;;;;;23.52;47.67;100890.06;5053323;28;1345;-46
2021/09/14 01:45:22;;;;;;;;;;;;;;;23.53;47.57;100886.31;5054362;28;1475;-45
2021/09/14 01:47:48;;;;;;;;;;;;;;;23.51;47.47;100882.94;5050221;28;1713;-45
2021/09/14 01:50:16;;;;;;;;;;;;;;;23.50;47.66;100892.91;5051033;28;1404;-46
2021/09/14 01:52:46;;;;;;;;;;;;;;;23.50;47.66;100897.47;5054770;28;1937;-45
2021/09/14 01:55:19;;;;;;;;;;;;;;;23.50;47.53;100911.81;5041822;28;1873;-45
2021/09/14 01:57:50;;;;;;;;;;;;;;;23.48;47.47;100888.69;5054528;28;1902;-46
2021/09/14 02:03:13;;;;;;;;;;;;;;;23.50;47.59;100892.06;4630039;26;2521;-46
2021/09/14 02:06:05;;;;;;;;;;;;;;;23.51;47.38;100885.66;5027099;28;2003;-47
2021/09/14 02:39:16;;;;;;;;;;;;;;;23.46;47.40;100906.88;5030484;28;1541;-46
2021/09/14 02:58:44;;;;;;;;;;;;;;;23.41;47.58;100916.28;5022255;28;2491;-46
2021/09/14 03:01:13;;;;;;;;;;;;;;;23.45;47.24;100927.63;5031420;28;1595;-46
2021/09/14 03:03:42;;;;;;;;;;;;;;;23.40;47.45;100925.41;5033211;28;1094;-46
2021/09/14 03:06:16;;;;;;;;;;;;;;;23.45;47.34;100927.63;5015146;28;2402;-46
2021/09/14 03:08:43;;;;;;;;;;;;;;;23.47;47.44;100940.97;5016633;28;1614;-46
2021/09/14 03:11:31;;;;;;;;;;;;;;;23.40;47.45;100925.41;5012928;28;1694;-46
2021/09/14 03:13:58;;;;;;;;;;;;;;;23.41;47.25;100939.75;5014798;28;1595;-46
2021/09/14 03:16:32;;;;;;;;;;;;;;;23.46;47.09;100934.72;5014001;28;1972;-47
2021/09/14 03:19:00;;;;;;;;;;;;;;;23.40;47.28;100938.06;5031861;28;1055;-48
2021/09/14 03:21:39;;;;;;;;;;;;;;;23.42;47.30;100947.69;5013538;28;1074;-47
2021/09/14 03:24:06;;;;;;;;;;;;;;;23.41;47.31;100943.28;5031250;28;2074;-46
2021/09/14 03:26:36;;;;;;;;;;;;;;;23.41;47.38;100953.25;5023401;28;1695;-47
2021/09/14 03:31:52;;;;;;;;;;;;;;;23.40;47.60;100936.22;5012555;28;1837;-47
2021/09/14 03:34:22;;;;;;;;;;;;;;;23.43;47.50;100953.91;5013086;28;1731;-47
2021/09/14 03:36:49;;;;;;;;;;;;;;;23.35;47.55;100949.31;5018063;28;1985;-47
2021/09/14 03:39:17;;;;;;;;;;;;;;;23.39;47.53;100953.38;5013189;28;1010;-47
2021/09/14 03:41:44;;;;;;;;;;;;;;;23.38;47.29;100942.78;5018150;28;1858;-46
2021/09/14 03:44:12;;;;;;;;;;;;;;;23.37;47.43;100952.69;5030441;28;1789;-46
2021/09/14 03:46:39;;;;;;;;;;;;;;;23.35;47.68;100960.13;5030555;28;1797;-48
2021/09/14 03:49:09;;;;;;;;;;;;;;;23.38;47.37;100967.91;5012755;28;1800;-47
2021/09/14 03:51:37;;;;;;;;;;;;;;;23.38;47.25;100959.81;5019084;28;1074;-47
2021/09/14 03:54:06;;;;;;;;;;;;;;;23.38;47.61;100954.41;5029111;28;2093;-47
2021/09/14 03:56:35;;;;;;;;;;;;;;;23.40;47.46;100974.00;5014241;28;1972;-47
2021/09/14 03:59:03;;;;;;;;;;;;;;;23.43;47.88;100965.56;5017854;28;2644;-46
2021/09/14 04:01:36;;;;;;;;;;;;;;;23.42;47.85;100973.84;5012011;28;1961;-47
2021/09/14 04:04:10;;;;;;;;;;;;;;;23.37;47.72;100974.28;5012291;28;1754;-48
2021/09/14 04:06:57;;;;;;;;;;;;;;;23.38;47.95;100967.91;5016390;28;1769;-48
2021/09/14 04:09:28;;;;;;;;;;;;;;;23.42;47.95;100980.06;5026796;28;996;-46
2021/09/14 04:11:55;;;;;;;;;;;;;;;23.45;48.22;100986.16;5031346;28;1753;-47
2021/09/14 04:14:25;;;;;;;;;;;;;;;23.41;47.89;100986.47;5018385;28;1844;-47
2021/09/14 04:16:52;;;;;;;;;;;;;;;23.38;47.86;100986.81;5019525;28;1973;-46
2021/09/14 04:19:23;;;;;;;;;;;;;;;23.41;47.90;100989.16;5033670;28;1972;-47
2021/09/14 04:22:02;;;;;;;;;;;;;;;23.42;47.84;100988.16;5029740;28;1584;-47
2021/09/14 04:24:30;;;;;;;;;;;;;;;23.42;47.83;100987.34;5020447;28;1396;-47
2021/09/14 04:27:00;;;;;;;;;;;;;;;23.43;47.94;100984.44;5031336;28;992;-47
2021/09/14 04:29:28;;;;;;;;;;;;;;;23.47;47.99;100989.53;5025950;28;1154;-47
2021/09/14 04:31:54;;;;;;;;;;;;;;;23.51;47.92;100993.63;5025903;28;1849;-46
2021/09/14 04:34:25;;;;;;;;;;;;;;;23.48;47.86;100997.50;5034141;28;1777;-48
2021/09/14 04:36:59;;;;;;;;;;;;;;;23.46;48.19;100993.22;5025550;28;1987;-47
2021/09/14 04:39:29;;;;;;;;;;;;;;;23.43;48.24;100995.25;5034505;28;1158;-47
2021/09/14 04:41:57;;;;;;;;;;;;;;;23.46;48.02;101004.03;5033468;28;1682;-47
2021/09/14 04:44:27;;;;;;;;;;;;;;;23.48;47.80;101012.84;5015725;28;1874;-47
2021/09/14 04:46:53;;;;;;;;;;;;;;;23.46;47.82;101014.81;5033585;28;1601;-47
2021/09/14 04:49:22;;;;;;;;;;;;;;;23.48;47.75;101010.16;5027180;28;1754;-47
2021/09/14 04:51:48;;;;;;;;;;;;;;;23.43;47.84;100997.94;5033982;28;1850;-47
2021/09/14 04:54:20;;;;;;;;;;;;;;;23.50;47.65;101010.84;5015572;28;992;-46
2021/09/14 04:56:49;;;;;;;;;;;;;;;23.43;47.76;101000.66;5031333;28;1980;-46
2021/09/14 04:59:17;;;;;;;;;;;;;;;23.48;47.76;101012.84;5024493;28;1669;-48
2021/09/14 05:01:44;;;;;;;;;;;;;;;23.54;47.64;101004.94;5022032;28;2011;-47
2021/09/14 05:04:10;;;;;;;;;;;;;;;23.47;48.21;101005.75;5015813;28;1922;-46
2021/09/14 05:06:37;;;;;;;;;;;;;;;23.40;48.32;101011.78;5017235;28;1878;-48
2021/09/14 05:09:06;;;;;;;;;;;;;;;23.31;48.61;101018.09;5033981;28;1077;-46
2021/09/14 05:11:38;;;;;;;;;;;;;;;23.34;48.69;101012.41;5031257;28;2321;-46
2021/09/14 05:14:05;;;;;;;;;;;;;;;23.46;48.36;101021.09;5028941;28;1434;-46
2021/09/14 05:16:33;;;;;;;;;;;;;;;23.40;48.49;101017.16;5022787;28;1906;-47
2021/09/14 05:19:01;;;;;;;;;;;;;;;23.49;48.40;101009.13;5015015;28;2026;-48
2021/09/14 05:21:32;;;;;;;;;;;;;;;23.61;48.21;101024.88;5031843;28;1253;-47
2021/09/14 05:23:58;;;;;;;;;;;;;;;23.60;48.32;101006.16;5032496;28;1576;-47
2021/09/14 05:26:27;;;;;;;;;;;;;;;23.69;49.49;101015.97;5022816;28;1852;-47
2021/09/14 05:29:00;;;;;;;;;;;;;;;23.68;50.51;101014.31;5017099;28;1960;-51
2021/09/14 05:31:30;;;;;;;;;;;;;;;23.72;50.81;101010.28;5023038;28;1976;-47
2021/09/14 05:33:56;;;;;;;;;;;;;;;23.77;50.59;101024.16;5034493;28;1095;-47
2021/09/14 05:36:23;;;;;;;;;;;;;;;23.79;50.48;101016.72;5015655;28;3378;-47
2021/09/14 05:38:49;;;;;;;;;;;;;;;23.85;51.81;101017.13;5026312;28;1764;-47
2021/09/14 05:41:18;;;;;;;;;;;;;;;23.86;53.18;101016.13;5015015;28;1848;-47
2021/09/14 05:43:47;;;;;;;;;;;;;;;23.84;52.43;101024.38;5024922;28;1453;-48
2021/09/14 05:46:14;;;;;;;;;;;;;;;23.94;51.26;101022.41;5028278;28;1548;-47
2021/09/14 05:48:58;;;;;;;;;;;;;;;23.94;51.66;101018.84;5026638;28;1665;-47
2021/09/14 05:51:25;;;;;;;;;;;;;;;23.89;51.36;101024.72;5028139;28;2040;-47
2021/09/14 05:53:55;;;;;;;;;;;;;;;23.90;51.21;101028.28;5028708;28;1802;-47
2021/09/14 05:56:30;;;;;;;;;;;;;;;23.91;51.09;101024.56;5030560;28;1976;-46
2021/09/14 05:59:00;;;;;;;;;;;;;;;23.96;50.99;101012.28;5028226;28;1558;-48
2021/09/14 06:01:32;;;;;;;;;;;;;;;24.10;50.72;101007.25;5019257;28;1841;-47
2021/09/14 06:03:59;;;;;;;;;;;;;;;24.09;52.63;101027.16;5033742;28;1800;-48
2021/09/14 06:06:27;;;;;;;;;;;;;;;24.12;51.37;101016.88;5030051;28;1645;-47
2021/09/14 06:08:55;;;;;;;;;;;;;;;24.15;52.33;101024.69;5032564;28;1798;-47
2021/09/14 06:11:22;;;;;;;;;;;;;;;24.10;53.63;101013.50;5032552;28;1683;-47
2021/09/14 06:13:52;;;;;;;;;;;;;;;24.11;51.35;101030.56;5032459;28;1354;-47
2021/09/14 06:16:21;;;;;;;;;;;;;;;24.12;50.66;101025.00;5024141;28;1701;-48
2021/09/14 06:18:56;;;;;;;;;;;;;;;24.15;51.75;101040.03;5031964;28;1902;-47
2021/09/14 06:21:23;;;;;;;;;;;;;;;24.14;52.54;101025.69;5031508;28;1371;-47
2021/09/14 06:23:51;;;;;;;;;;;;;;;24.15;53.01;101021.13;5022895;28;1754;-47
2021/09/14 06:26:19;;;;;;;;;;;;;;;24.18;53.27;101042.41;5029571;28;1910;-48
2021/09/14 06:28:46;;;;;;;;;;;;;;;24.18;53.02;101032.44;5034033;28;1943;-48
2021/09/14 06:31:15;;;;;;;;;;;;;;;24.19;53.31;101023.34;5029732;28;1632;-47
2021/09/14 06:33:42;;;;;;;;;;;;;;;24.22;54.41;101025.69;5033123;28;1172;-47
2021/09/14 06:36:17;;;;;;;;;;;;;;;24.20;54.62;101025.03;5030004;28;1712;-47
2021/09/14 06:38:44;;;;;;;;;;;;;;;24.25;55.21;101029.09;5030889;28;1918;-47
2021/09/14 06:41:12;;;;;;;;;;;;;;;24.24;55.30;101039.06;5029460;28;1741;-47
2021/09/14 06:43:45;;;;;;;;;;;;;;;24.23;54.98;101034.66;5025965;28;1907;-48
2021/09/14 06:46:19;;;;;;;;;;;;;;;24.22;54.87;101023.00;5032871;28;1767;-48
2021/09/14 06:48:48;;;;;;;;;;;;;;;24.22;55.17;101023.00;5032560;28;1154;-47
2021/09/14 06:51:18;;;;;;;;;;;;;;;24.25;54.85;101031.78;5030159;28;1845;-47
2021/09/14 06:53:46;;;;;;;;;;;;;;;24.24;54.46;101035.53;5019900;28;1692;-47
2021/09/14 06:56:14;;;;;;;;;;;;;;;24.25;54.25;101026.38;5025971;28;1920;-47
2021/09/14 06:58:42;;;;;;;;;;;;;;;24.25;54.48;101026.38;5018368;28;1910;-47
2021/09/14 07:01:08;;;;;;;;;;;;;;;24.25;54.70;101034.50;5023258;28;1485;-47
2021/09/14 07:03:38;;;;;;;;;;;;;;;24.26;54.36;101034.34;5028116;28;1946;-47
2021/09/14 07:06:08;;;;;;;;;;;;;;;24.30;54.37;101045.66;5031682;28;1574;-47
2021/09/14 07:08:43;;;;;;;;;;;;;;;24.29;54.54;101020.50;5020974;28;1713;-47
2021/09/14 07:11:10;;;;;;;;;;;;;;;24.28;54.73;101036.88;5031910;28;1472;-46
2021/09/14 07:13:39;;;;;;;;;;;;;;;24.29;54.44;101031.31;5032302;28;1697;-47
2021/09/14 07:16:14;;;;;;;;;;;;;;;24.29;54.63;101054.78;5023113;28;1038;-47
2021/09/14 07:18:42;;;;;;;;;;;;;;;24.29;54.97;101033.16;5016473;28;1903;-46
2021/09/14 07:21:12;;;;;;;;;;;;;;;24.26;54.69;101023.53;5016568;28;1663;-48
2021/09/14 07:23:49;;;;;;;;;;;;;;;24.26;54.78;101037.03;5031080;28;1798;-47
2021/09/14 07:26:18;;;;;;;;;;;;;;;24.24;54.57;101036.34;5021185;28;2370;-47
2021/09/14 07:28:45;;;;;;;;;;;;;;;24.23;54.94;101045.47;5013938;28;1630;-49
2021/09/14 07:31:14;;;;;;;;;;;;;;;24.30;54.70;101042.97;5020617;28;1626;-47
2021/09/14 07:33:48;;;;;;;;;;;;;;;24.21;54.89;101040.25;5013598;28;1073;-46
2021/09/14 07:36:18;;;;;;;;;;;;;;;24.20;54.57;101030.44;5014774;28;1652;-47
2021/09/14 07:39:01;;;;;;;;;;;;;;;24.22;54.26;101024.88;5031682;28;1909;-47
2021/09/14 07:41:35;;;;;;;;;;;;;;;24.27;54.38;101024.38;5017625;28;1993;-47
2021/09/14 07:44:02;;;;;;;;;;;;;;;24.29;54.56;101041.25;5023715;28;1746;-47
2021/09/14 07:46:30;;;;;;;;;;;;;;;24.29;54.51;101027.75;5017882;28;1725;-47
2021/09/14 07:48:58;;;;;;;;;;;;;;;24.27;54.43;101018.97;5013347;28;1011;-47
2021/09/14 07:51:29;;;;;;;;;;;;;;;24.31;54.82;101020.31;5028918;28;1709;-47
2021/09/14 07:53:59;;;;;;;;;;;;;;;24.28;54.36;101036.88;5021444;28;1748;-46
2021/09/14 07:56:25;;;;;;;;;;;;;;;24.27;54.46;101025.19;5016239;28;1350;-47
2021/09/14 07:58:54;;;;;;;;;;;;;;;24.21;54.76;101018.63;5022899;28;1976;-47
2021/09/14 08:01:21;;;;;;;;;;;;;;;24.22;55.03;101036.50;5030868;28;1622;-47
2021/09/14 08:03:47;;;;;;;;;;;;;;;24.20;54.91;101019.63;5033490;28;1080;-47
2021/09/14 08:06:16;;;;;;;;;;;;;;;24.17;54.88;101011.84;5021257;28;1521;-46
2021/09/14 08:08:43;;;;;;;;;;;;;;;24.21;54.37;101006.94;5015980;28;2557;-47
2021/09/14 08:11:16;;;;;;;;;;;;;;;24.18;54.78;101005.44;5030873;28;1420;-47
2021/09/14 08:13:49;;;;;;;;;;;;;;;24.20;54.28;101016.91;5014586;28;1601;-47
2021/09/14 08:16:17;;;;;;;;;;;;;;;24.22;54.64;101005.94;5013221;28;1449;-47
2021/09/14 08:18:45;;;;;;;;;;;;;;;24.27;54.53;101010.84;5030103;28;1910;-46
2021/09/14 08:21:15;;;;;;;;;;;;;;;24.28;54.32;101031.47;5022719;28;1504;-47
2021/09/14 08:23:50;;;;;;;;;;;;;;;24.20;54.74;101002.56;5022914;28;2093;-47
2021/09/14 08:26:22;;;;;;;;;;;;;;;24.20;54.62;101014.22;5020445;28;1894;-46
2021/09/14 08:28:57;;;;;;;;;;;;;;;24.23;54.62;101015.72;5024500;28;1565;-46
2021/09/14 08:31:27;;;;;;;;;;;;;;;24.17;54.51;101001.03;5022965;28;1795;-46
2021/09/14 08:33:56;;;;;;;;;;;;;;;24.17;55.04;101003.75;5015966;28;1060;-47
2021/09/14 08:36:24;;;;;;;;;;;;;;;24.20;54.70;101005.28;5020340;28;1566;-47
2021/09/14 08:38:58;;;;;;;;;;;;;;;24.21;54.49;100998.84;5017104;28;1980;-47
2021/09/14 08:41:31;;;;;;;;;;;;;;;24.19;54.46;101000.84;5028793;28;1584;-47
2021/09/14 08:43:58;;;;;;;;;;;;;;;24.25;54.48;101000.19;5018144;28;1825;-47
2021/09/14 08:46:25;;;;;;;;;;;;;;;24.27;54.23;101008.16;5027063;28;1625;-48
2021/09/14 08:48:52;;;;;;;;;;;;;;;24.28;53.92;100994.47;5026502;28;1091;-47
2021/09/14 08:51:22;;;;;;;;;;;;;;;24.28;54.47;100996.34;5027550;28;1664;-47
2021/09/14 08:53:51;;;;;;;;;;;;;;;24.28;54.56;100991.78;5016343;28;1677;-46
2021/09/14 08:56:18;;;;;;;;;;;;;;;24.26;54.43;100985.69;5019666;28;2000;-47
2021/09/14 08:58:56;;;;;;;;;;;;;;;24.25;54.09;100981.28;5022811;28;1910;-47
2021/09/14 09:01:23;;;;;;;;;;;;;;;24.25;54.34;100989.38;5033315;28;1926;-47
2021/09/14 09:03:56;;;;;;;;;;;;;;;24.26;54.19;100984.84;5024656;28;1089;-47
2021/09/14 09:06:32;;;;;;;;;;;;;;;24.25;54.21;100983.16;5020310;28;1406;-47
2021/09/14 09:09:13;;;;;;;;;;;;;;;24.20;54.46;100975.53;5018460;28;1733;-47
2021/09/14 09:11:39;;;;;;;;;;;;;;;24.22;54.37;100987.88;5017247;28;1890;-46
2021/09/14 09:14:10;;;;;;;;;;;;;;;24.20;54.90;100981.78;5023762;28;1663;-48
2021/09/14 09:16:37;;;;;;;;;;;;;;;24.21;54.20;101005.13;5022012;28;1238;-47
2021/09/14 09:19:07;;;;;;;;;;;;;;;24.20;54.59;100970.13;5030619;28;1979;-47
2021/09/14 09:21:45;;;;;;;;;;;;;;;24.22;54.02;100974.38;5016329;28;1137;-46
2021/09/14 09:24:16;;;;;;;;;;;;;;;24.22;54.41;100968.97;5031370;28;1112;-46
2021/09/14 09:26:46;;;;;;;;;;;;;;;24.27;54.69;100987.38;5025846;28;1785;-47
2021/09/14 09:29:22;;;;;;;;;;;;;;;24.21;54.74;100978.09;5023849;28;2092;-47
2021/09/14 09:31:50;;;;;;;;;;;;;;;24.19;54.81;100974.72;5023061;28;1868;-47
2021/09/14 09:34:16;;;;;;;;;;;;;;;24.20;54.49;100957.47;5033830;28;2458;-47
2021/09/14 09:36:45;;;;;;;;;;;;;;;24.22;54.85;100979.75;5029261;28;1347;-47
2021/09/14 09:39:15;;;;;;;;;;;;;;;24.22;54.54;100968.97;5015737;28;1995;-46
2021/09/14 09:42:04;;;;;;;;;;;;;;;24.27;54.43;100962.22;5018396;28;1699;-47
2021/09/14 09:44:40;;;;;;;;;;;;;;;24.24;54.38;100960.69;5016389;28;1671;-47
2021/09/14 09:47:10;;;;;;;;;;;;;;;24.29;54.26;100973.69;5021899;28;1800;-47
2021/09/14 09:49:39;;;;;;;;;;;;;;;24.22;53.86;100958.16;5027447;28;1511;-47
2021/09/14 09:52:07;;;;;;;;;;;;;;;24.24;54.54;100951.75;5020943;28;1352;-47
2021/09/14 09:54:39;;;;;;;;;;;;;;;24.26;54.47;100957.81;5029038;28;1793;-47
2021/09/14 09:57:08;;;;;;;;;;;;;;;24.25;54.33;100945.31;5015506;28;1681;-48
2021/09/14 09:59:42;;;;;;;;;;;;;;;24.26;54.50;100930.81;5024310;28;1966;-46
2021/09/14 10:02:27;;;;;;;;;;;;;;;24.26;54.57;100947.84;5027583;28;1352;-47
2021/09/14 10:05:08;;;;;;;;;;;;;;;24.29;54.46;100949.38;5017571;28;1867;-47
2021/09/14 10:07:47;;;;;;;;;;;;;;;24.26;54.77;100960.53;5030034;28;1840;-47
2021/09/14 10:10:17;;;;;;;;;;;;;;;24.27;54.19;100951.41;5015491;28;1099;-47
2021/09/14 10:12:45;;;;;;;;;;;;;;;24.24;54.88;100943.63;5026983;28;1760;-47
2021/09/14 10:15:17;;;;;;;;;;;;;;;24.26;54.76;100941.63;5031135;28;1834;-46
2021/09/14 10:18:10;;;;;;;;;;;;;;;24.26;54.70;100944.31;5019269;28;1910;-47
2021/09/14 10:20:38;;;;;;;;;;;;;;;24.29;54.37;100946.66;5024418;28;2074;-46
2021/09/14 10:23:08;;;;;;;;;;;;;;;24.26;54.32;100947.03;5025302;28;1813;-47
2021/09/14 10:25:36;;;;;;;;;;;;;;;24.29;54.75;100950.25;5026081;28;1550;-47
2021/09/14 10:28:12;;;;;;;;;;;;;;;24.27;54.37;100935.19;5021181;28;1793;-47
2021/09/14 10:30:51;;;;;;;;;;;;;;;24.29;54.45;100925.06;5026400;28;1905;-47
2021/09/14 10:33:35;;;;;;;;;;;;;;;24.30;54.18;100934.88;5027375;28;1180;-47
2021/09/14 10:36:13;;;;;;;;;;;;;;;24.34;54.42;100941.63;5030699;28;1846;-46
2021/09/14 10:38:48;;;;;;;;;;;;;;;24.28;54.49;100923.38;5025845;28;1914;-47
2021/09/14 10:41:24;;;;;;;;;;;;;;;24.28;54.46;100928.78;5032033;28;1757;-47
2021/09/14 10:43:57;;;;;;;;;;;;;;;24.28;54.55;100935.03;5015875;28;1778;-47
2021/09/14 10:46:32;;;;;;;;;;;;;;;24.29;54.14;100931.31;5024573;28;1820;-47
2021/09/14 10:51:41;;;;;;;;;;;;;;;24.28;54.57;100923.38;5026031;28;2439;-46
2021/09/14 10:54:22;;;;;;;;;;;;;;;24.32;54.23;100930.97;5023969;28;1020;-47
2021/09/14 10:56:50;;;;;;;;;;;;;;;24.29;54.00;100922.34;5024990;28;1000;-47
2021/09/14 10:59:29;;;;;;;;;;;;;;;24.31;54.24;100923.03;5029538;28;1910;-47
2021/09/14 11:02:02;;;;;;;;;;;;;;;24.27;54.67;100924.38;5020274;28;1924;-47
2021/09/14 11:04:33;;;;;;;;;;;;;;;24.28;54.59;100917.97;5030549;28;1312;-47
2021/09/14 11:07:02;;;;;;;;;;;;;;;24.29;54.86;100911.53;5016095;28;1422;-47
2021/09/14 11:09:32;;;;;;;;;;;;;;;24.30;54.31;100921.34;5011561;28;1161;-47
2021/09/14 11:12:01;;;;;;;;;;;;;;;24.32;54.55;100914.75;5026801;28;1991;-46
2021/09/14 11:14:34;;;;;;;;;;;;;;;24.29;54.64;100919.66;5018089;28;1729;-47
2021/09/14 11:17:08;;;;;;;;;;;;;;;24.27;54.42;100906.28;5025700;28;1907;-46
2021/09/14 11:19:36;;;;;;;;;;;;;;;24.26;54.90;100906.47;5025662;28;1980;-47
2021/09/14 11:22:03;;;;;;;;;;;;;;;24.27;54.95;100908.16;5018107;28;1695;-47
2021/09/14 11:24:32;;;;;;;;;;;;;;;24.26;54.90;100914.59;5019487;28;1691;-47
2021/09/14 11:26:59;;;;;;;;;;;;;;;24.27;54.92;100905.44;5018332;28;1683;-46
2021/09/14 11:29:29;;;;;;;;;;;;;;;24.26;54.85;100901.09;5022907;28;1224;-47
2021/09/14 11:31:56;;;;;;;;;;;;;;;24.29;54.38;100914.25;5026701;28;2066;-47
2021/09/14 11:34:26;;;;;;;;;;;;;;;24.26;54.33;100898.38;5015294;28;1927;-46
2021/09/14 11:36:55;;;;;;;;;;;;;;;24.29;54.83;100901.59;5023188;28;1719;-47
2021/09/14 11:39:25;;;;;;;;;;;;;;;24.31;54.29;100896.00;5019277;28;1977;-47
2021/09/14 11:41:59;;;;;;;;;;;;;;;24.28;54.61;100902.59;5032112;28;1999;-47
2021/09/14 11:44:29;;;;;;;;;;;;;;;24.27;54.58;100895.47;5027253;28;1948;-46
2021/09/14 11:47:06;;;;;;;;;;;;;;;24.32;54.45;100900.41;5019805;28;1417;-47
2021/09/14 11:49:34;;;;;;;;;;;;;;;24.27;54.70;100889.25;5020124;28;1553;-47
2021/09/14 11:52:04;;;;;;;;;;;;;;;24.29;54.69;100889.91;5014680;28;1452;-47
2021/09/14 11:54:46;;;;;;;;;;;;;;;24.28;54.61;100897.19;5026859;28;1805;-48
2021/09/14 11:57:15;;;;;;;;;;;;;;;24.30;54.42;100889.75;5012531;28;1672;-47
2021/09/14 11:59:42;;;;;;;;;;;;;;;24.29;54.39;100892.63;5024739;28;1902;-47
2021/09/14 12:02:12;;;;;;;;;;;;;;;24.29;54.50;100887.22;5028574;28;1294;-47
2021/09/14 12:04:44;;;;;;;;;;;;;;;24.28;54.39;100872.88;5016620;28;1444;-47
2021/09/14 12:07:23;;;;;;;;;;;;;;;24.28;54.89;100886.38;5028584;28;1409;-46
2021/09/14 12:10:06;;;;;;;;;;;;;;;24.27;54.95;100884.66;5022209;28;1140;-46
2021/09/14 12:12:33;;;;;;;;;;;;;;;24.30;54.45;100878.94;5029199;28;1479;-47
2021/09/14 12:15:02;;;;;;;;;;;;;;;24.28;54.63;100872.03;5023755;28;1998;-47
2021/09/14 12:17:34;;;;;;;;;;;;;;;24.27;54.82;100867.63;5024581;28;1747;-47
2021/09/14 12:20:09;;;;;;;;;;;;;;;24.29;54.81;100885.38;5017036;28;1902;-47
2021/09/14 12:22:37;;;;;;;;;;;;;;;24.29;54.67;100871.88;5021809;28;1620;-46
2021/09/14 12:25:04;;;;;;;;;;;;;;;24.28;54.95;100870.16;5017572;28;1652;-47
2021/09/14 12:27:30;;;;;;;;;;;;;;;24.31;54.23;100868.97;5031035;28;1906;-47
2021/09/14 12:29:57;;;;;;;;;;;;;;;24.27;54.56;100868.47;5023134;28;1394;-47
2021/09/14 12:32:23;;;;;;;;;;;;;;;24.30;54.22;100878.09;5027676;28;1159;-47
2021/09/14 12:34:52;;;;;;;;;;;;;;;24.30;54.48;100862.72;5035169;28;1922;-47
2021/09/14 12:37:22;;;;;;;;;;;;;;;24.29;54.23;100861.06;5028484;28;1284;-47
2021/09/14 12:39:51;;;;;;;;;;;;;;;24.29;54.31;100866.47;5036632;28;1997;-47
2021/09/14 12:42:20;;;;;;;;;;;;;;;24.31;54.95;100856.34;5026631;28;1461;-47
2021/09/14 12:44:47;;;;;;;;;;;;;;;24.28;54.28;100853.94;5023384;28;1929;-47
2021/09/14 12:47:16;;;;;;;;;;;;;;;24.33;54.47;100857.00;5030232;28;1788;-46
2021/09/14 12:49:44;;;;;;;;;;;;;;;24.30;54.22;100873.53;5024316;28;1636;-47
2021/09/14 12:52:19;;;;;;;;;;;;;;;24.30;54.30;100862.72;5035497;28;1836;-47
2021/09/14 12:54:52;;;;;;;;;;;;;;;24.31;54.90;100877.09;5018059;28;1956;-47
2021/09/14 12:57:18;;;;;;;;;;;;;;;24.28;54.53;100869.31;5030307;28;1761;-47
2021/09/14 12:59:47;;;;;;;;;;;;;;;24.30;54.73;100851.09;5020996;28;1991;-46
2021/09/14 13:02:14;;;;;;;;;;;;;;;24.28;54.36;100853.13;5032016;28;1976;-47
2021/09/14 13:04:44;;;;;;;;;;;;;;;24.29;54.38;100849.38;5024467;28;1559;-47
2021/09/14 13:07:14;;;;;;;;;;;;;;;24.29;55.02;100854.78;5027018;28;1840;-47
2021/09/14 13:09:41;;;;;;;;;;;;;;;24.33;54.75;100856.13;5023804;28;1108;-46
2021/09/14 13:12:18;;;;;;;;;;;;;;;24.29;54.59;100846.69;5032297;28;1673;-46
2021/09/14 13:17:29;;;;;;;;;;;;;;;24.29;54.41;100850.25;5026454;28;1562;-47
2021/09/14 13:19:59;;;;;;;;;;;;;;;24.29;54.59;100838.56;5025112;28;2000;-46
2021/09/14 13:22:25;;;;;;;;;;;;;;;24.29;54.54;100838.56;5028716;28;1528;-47
2021/09/14 13:24:54;;;;;;;;;;;;;;;24.24;54.66;100840.94;5034023;28;1186;-47
2021/09/14 13:27:26;;;;;;;;;;;;;;;24.25;54.55;100837.22;5021024;28;1768;-47
2021/09/14 13:29:56;;;;;;;;;;;;;;;24.26;54.80;100849.72;5030624;28;1853;-47
2021/09/14 13:32:25;;;;;;;;;;;;;;;24.24;54.38;100841.78;5025284;28;1162;-47
2021/09/14 13:34:54;;;;;;;;;;;;;;;24.29;54.77;100847.53;5032144;28;1959;-47
2021/09/14 13:37:24;;;;;;;;;;;;;;;24.27;54.60;100851.41;5026309;28;1727;-47
2021/09/14 13:39:51;;;;;;;;;;;;;;;24.25;54.74;100843.47;5026579;28;1968;-46
2021/09/14 13:42:25;;;;;;;;;;;;;;;24.22;54.68;100835.72;5021816;28;1839;-47
2021/09/14 13:47:39;;;;;;;;;;;;;;;24.21;54.62;100824.06;5022774;28;1834;-47
2021/09/14 13:50:07;;;;;;;;;;;;;;;24.21;54.57;100821.34;5020322;28;2176;-47
2021/09/14 13:52:36;;;;;;;;;;;;;;;24.24;54.75;100836.38;5017995;28;1400;-46
2021/09/14 13:55:02;;;;;;;;;;;;;;;24.24;55.08;100828.28;5018314;28;1655;-47
2021/09/14 13:57:29;;;;;;;;;;;;;;;24.20;54.83;100808.00;5020724;28;1519;-47
2021/09/14 14:00:04;;;;;;;;;;;;;;;24.21;54.97;100821.34;5029564;28;1909;-47
2021/09/14 14:02:34;;;;;;;;;;;;;;;24.26;54.52;100826.25;5023778;28;1469;-47
2021/09/14 14:05:03;;;;;;;;;;;;;;;24.16;54.87;100812.91;5019675;28;1734;-47
2021/09/14 14:07:30;;;;;;;;;;;;;;;24.19;54.85;100823.38;5025102;28;1625;-47